createdAt,value
2023-01-26T00:02:23.498Z,4.87
2023-01-26T00:05:31.645Z,5.30
2023-01-26T00:08:43.582Z,5.00
2023-01-26T00:11:52.066Z,4.63
2023-01-26T00:15:00.482Z,4.87
2023-01-26T00:18:10.529Z,5.53
2023-01-26T00:21:21.688Z,5.03
2023-01-26T00:24:32.562Z,4.83
2023-01-26T00:27:40.759Z,4.70
2023-01-26T00:30:49.809Z,4.50
2023-01-26T00:33:58.680Z,4.17
2023-01-26T00:37:06.829Z,4.43
2023-01-26T00:40:21.476Z,4.20
2023-01-26T00:43:29.720Z,4.27
2023-01-26T00:46:38.939Z,5.00
2023-01-26T00:49:48.649Z,4.40
2023-01-26T00:52:57.135Z,4.00
2023-01-26T00:56:09.400Z,3.70
2023-01-26T00:59:17.596Z,3.60
2023-01-26T01:02:27.866Z,3.90
2023-01-26T01:05:36.483Z,4.10
2023-01-26T01:08:44.874Z,3.87
2023-01-26T01:11:54.683Z,3.63
2023-01-26T01:15:02.896Z,4.10
2023-01-26T01:18:11.309Z,3.53
2023-01-26T01:21:19.707Z,4.13
2023-01-26T01:24:28.205Z,4.30
2023-01-26T01:27:38.220Z,3.97
2023-01-26T01:30:47.221Z,4.27
2023-01-26T01:33:56.644Z,4.00
2023-01-26T01:37:05.222Z,3.57
2023-01-26T01:40:15.219Z,3.83
2023-01-26T01:43:26.845Z,4.73
2023-01-26T01:46:38.478Z,4.30
2023-01-26T01:49:51.714Z,4.07
2023-01-26T01:53:01.045Z,3.87
2023-01-26T01:56:19.161Z,4.23
2023-01-26T01:59:30.908Z,3.60
2023-01-26T02:02:40.373Z,3.47
2023-01-26T02:05:59.264Z,3.43
2023-01-26T02:09:32.348Z,3.27
2023-01-26T02:12:41.723Z,3.30
2023-01-26T02:15:52.588Z,3.00
2023-01-26T02:19:01.077Z,3.33
2023-01-26T02:22:23.249Z,2.90
2023-01-26T02:25:45.541Z,3.43
2023-01-26T02:28:56.541Z,3.43
2023-01-26T02:32:04.806Z,3.43
2023-01-26T02:35:13.133Z,2.77
2023-01-26T02:38:24.730Z,4.00
2023-01-26T02:41:50.669Z,3.97
2023-01-26T02:45:00.505Z,3.73
2023-01-26T02:48:10.079Z,4.20
2023-01-26T02:51:17.282Z,3.67
2023-01-26T02:54:43.103Z,4.33
2023-01-26T02:57:53.447Z,4.47
2023-01-26T03:01:04.261Z,3.00
2023-01-26T03:04:12.663Z,3.47
2023-01-26T03:07:21.114Z,3.40
2023-01-26T03:10:29.270Z,3.97
2023-01-26T03:13:37.776Z,3.47
2023-01-26T03:16:47.401Z,3.60
2023-01-26T03:20:13.334Z,3.40
2023-01-26T03:23:40.619Z,3.93
2023-01-26T03:27:06.615Z,3.57
2023-01-26T03:30:18.290Z,3.53
2023-01-26T03:33:29.816Z,3.10
2023-01-26T03:36:38.556Z,3.33
2023-01-26T03:40:10.406Z,3.23
2023-01-26T03:43:37.189Z,3.30
2023-01-26T03:47:03.787Z,4.00
2023-01-26T03:50:32.722Z,3.47
2023-01-26T03:53:58.552Z,3.37
2023-01-26T03:57:09.752Z,3.00
2023-01-26T04:00:19.423Z,3.30
2023-01-26T04:03:45.632Z,3.30
2023-01-26T04:07:13.032Z,2.43
2023-01-26T04:10:27.946Z,3.07
2023-01-26T04:13:54.415Z,3.10
2023-01-26T04:17:28.534Z,3.37
2023-01-26T04:20:55.558Z,2.90
2023-01-26T04:24:09.485Z,3.00
2023-01-26T04:27:18.730Z,2.93
2023-01-26T04:30:27.364Z,3.00
2023-01-26T04:33:35.936Z,2.40
2023-01-26T04:36:44.878Z,2.50
2023-01-26T04:39:56.272Z,2.73
2023-01-26T04:43:04.579Z,2.07
2023-01-26T04:46:13.209Z,2.17
2023-01-26T04:49:22.591Z,2.40
2023-01-26T04:52:30.967Z,2.20
2023-01-26T04:55:40.544Z,2.30
2023-01-26T04:58:48.879Z,2.10
2023-01-26T05:01:57.746Z,2.47
2023-01-26T05:05:06.931Z,2.57
2023-01-26T05:08:15.278Z,2.40
2023-01-26T05:11:25.050Z,2.50
2023-01-26T05:15:00.849Z,2.50
2023-01-26T05:18:24.998Z,2.03
2023-01-26T05:21:42.776Z,1.93
2023-01-26T05:24:51.247Z,2.27
2023-01-26T05:28:13.819Z,2.07
2023-01-26T05:31:22.337Z,2.90
2023-01-26T05:34:30.651Z,2.43
2023-01-26T05:37:39.063Z,2.10
2023-01-26T05:40:47.689Z,2.57
2023-01-26T05:43:57.813Z,3.03
2023-01-26T05:47:23.514Z,3.20
2023-01-26T05:50:32.405Z,3.27
2023-01-26T05:53:58.265Z,2.77
2023-01-26T05:57:06.459Z,2.77
2023-01-26T06:00:20.922Z,2.13
2023-01-26T06:03:37.752Z,2.87
2023-01-26T06:06:45.959Z,2.73
2023-01-26T06:10:07.216Z,2.83
2023-01-26T06:13:38.382Z,2.93
2023-01-26T06:17:03.054Z,2.40
2023-01-26T06:20:14.620Z,1.90
2023-01-26T06:23:26.552Z,2.30
2023-01-26T06:26:36.984Z,2.57
2023-01-26T06:29:45.778Z,2.70
2023-01-26T06:32:56.182Z,1.70
2023-01-26T06:36:08.089Z,2.03
2023-01-26T06:39:17.002Z,2.27
2023-01-26T06:42:26.847Z,1.80
2023-01-26T06:45:34.979Z,1.87
2023-01-26T06:48:44.694Z,2.27
2023-01-26T06:52:04.008Z,2.43
2023-01-26T06:55:41.760Z,2.63
2023-01-26T06:59:10.706Z,1.80
2023-01-26T07:02:37.736Z,1.30
2023-01-26T07:05:47.280Z,1.37
2023-01-26T07:08:55.511Z,1.93
2023-01-26T07:12:04.826Z,2.00
2023-01-26T07:15:14.256Z,2.53
2023-01-26T07:18:22.594Z,2.47
2023-01-26T07:21:32.380Z,2.63
2023-01-26T07:24:40.723Z,2.67
2023-01-26T07:27:48.825Z,1.97
2023-01-26T07:30:59.817Z,1.40
2023-01-26T07:34:08.497Z,2.10
2023-01-26T07:37:18.209Z,1.70
2023-01-26T07:40:26.764Z,1.43
2023-01-26T07:43:36.421Z,1.63
2023-01-26T07:46:45.736Z,1.50
2023-01-26T07:49:53.966Z,1.50
2023-01-26T07:53:03.613Z,1.67
2023-01-26T07:56:14.072Z,1.80
2023-01-26T07:59:22.687Z,1.40
2023-01-26T08:02:31.056Z,1.50
2023-01-26T08:05:39.462Z,1.63
2023-01-26T08:08:53.582Z,1.93
2023-01-26T08:12:01.826Z,1.87
2023-01-26T08:15:11.647Z,2.00
2023-01-26T08:18:20.077Z,1.67
2023-01-26T08:21:28.493Z,1.37
2023-01-26T08:24:38.156Z,2.03
2023-01-26T08:27:46.665Z,1.60
2023-01-26T08:30:55.853Z,1.73
2023-01-26T08:34:04.607Z,2.03
2023-01-26T08:37:12.965Z,1.97
2023-01-26T08:40:22.419Z,1.70
2023-01-26T08:43:31.575Z,1.80
2023-01-26T08:46:39.791Z,1.50
2023-01-26T08:49:48.326Z,2.53
2023-01-26T08:52:58.463Z,1.87
2023-01-26T08:56:11.588Z,1.40
2023-01-26T08:59:19.747Z,2.03
2023-01-26T09:02:27.992Z,1.53
2023-01-26T09:05:38.368Z,1.70
2023-01-26T09:08:46.821Z,2.57
2023-01-26T09:11:58.243Z,2.03
2023-01-26T09:15:08.434Z,1.90
2023-01-26T09:18:19.559Z,1.70
2023-01-26T09:21:28.024Z,2.20
2023-01-26T09:24:36.110Z,2.13
2023-01-26T09:27:45.801Z,1.87
2023-01-26T09:30:54.280Z,2.30
2023-01-26T09:34:02.438Z,1.93
2023-01-26T09:37:11.006Z,2.27
2023-01-26T09:40:27.084Z,2.30
2023-01-26T09:43:43.590Z,2.47
2023-01-26T09:47:10.138Z,1.70
2023-01-26T09:50:25.721Z,2.27
2023-01-26T09:53:47.651Z,2.70
2023-01-26T09:56:57.345Z,2.30
2023-01-26T10:00:11.421Z,3.13
2023-01-26T10:03:30.217Z,2.37
2023-01-26T10:06:39.950Z,2.03
2023-01-26T10:09:52.489Z,2.20
2023-01-26T10:13:02.028Z,2.60
2023-01-26T10:16:16.343Z,2.60
2023-01-26T10:19:35.853Z,2.33
2023-01-26T10:22:46.922Z,2.53
2023-01-26T10:26:00.460Z,2.40
2023-01-26T10:29:16.447Z,2.57
2023-01-26T10:32:26.112Z,2.60
2023-01-26T10:35:34.322Z,2.57
2023-01-26T10:38:46.675Z,3.00
2023-01-26T10:42:00.516Z,2.27
2023-01-26T10:45:27.619Z,2.67
2023-01-26T10:48:37.146Z,3.07
2023-01-26T10:52:05.350Z,2.97
2023-01-26T10:55:21.945Z,2.87
2023-01-26T10:58:49.503Z,3.13
2023-01-26T11:02:01.411Z,2.77
2023-01-26T11:05:22.832Z,2.43
2023-01-26T11:08:35.506Z,3.10
2023-01-26T11:11:56.566Z,3.10
2023-01-26T11:15:15.878Z,3.33
2023-01-26T11:18:43.645Z,3.37
2023-01-26T11:22:00.654Z,3.97
2023-01-26T11:25:24.376Z,3.57
2023-01-26T11:28:51.457Z,3.60
2023-01-26T11:32:10.855Z,4.03
2023-01-26T11:35:44.921Z,4.93
2023-01-26T11:39:10.537Z,4.47
2023-01-26T11:42:28.908Z,4.30
2023-01-26T11:46:00.925Z,5.40
2023-01-26T11:49:28.038Z,5.20
2023-01-26T11:52:50.182Z,5.37
2023-01-26T11:56:18.829Z,4.80
2023-01-26T11:59:36.613Z,6.10
2023-01-26T12:02:54.035Z,5.47
2023-01-26T12:06:07.868Z,5.13
2023-01-26T12:09:24.387Z,7.17
2023-01-26T12:12:43.058Z,6.37
2023-01-26T12:16:01.631Z,7.20
2023-01-26T12:19:35.946Z,6.70
2023-01-26T12:22:54.997Z,6.13
2023-01-26T12:26:11.911Z,5.10
2023-01-26T12:29:29.705Z,6.10
2023-01-26T12:32:37.833Z,5.73
2023-01-26T12:36:05.075Z,5.57
2023-01-26T12:39:20.967Z,5.37
2023-01-26T12:42:45.005Z,5.40
2023-01-26T12:46:00.659Z,6.10
2023-01-26T12:49:17.825Z,5.50
2023-01-26T12:52:33.093Z,5.77
2023-01-26T12:55:49.069Z,6.03
2023-01-26T12:59:00.879Z,5.37
2023-01-26T13:02:29.534Z,5.50
2023-01-26T13:05:56.027Z,6.13
2023-01-26T13:09:20.867Z,6.00
2023-01-26T13:12:49.953Z,6.93
2023-01-26T13:16:34.463Z,5.97
2023-01-26T13:19:59.632Z,6.30
2023-01-26T13:23:42.405Z,5.80
2023-01-26T13:26:53.513Z,6.70
2023-01-26T13:30:02.474Z,6.73
2023-01-26T13:33:17.222Z,5.87
2023-01-26T13:36:31.469Z,6.23
2023-01-26T13:39:45.338Z,7.33
2023-01-26T13:43:01.684Z,6.13
2023-01-26T13:46:18.976Z,6.17
2023-01-26T13:49:37.563Z,6.57
2023-01-26T13:52:47.137Z,6.47
2023-01-26T13:56:00.727Z,7.43
2023-01-26T13:59:15.348Z,5.83
2023-01-26T14:02:26.703Z,6.87
2023-01-26T14:05:36.559Z,6.87
2023-01-26T14:08:52.933Z,6.33
2023-01-26T14:12:04.926Z,7.60
2023-01-26T14:15:24.595Z,6.10
2023-01-26T14:18:33.414Z,7.23
2023-01-26T14:21:52.045Z,6.67
2023-01-26T14:25:02.648Z,6.40
2023-01-26T14:28:16.667Z,6.20
2023-01-26T14:31:27.629Z,7.00
2023-01-26T14:34:35.989Z,6.27
2023-01-26T14:37:44.168Z,6.23
2023-01-26T14:40:57.037Z,7.03
2023-01-26T14:44:07.482Z,7.10
2023-01-26T14:47:23.077Z,7.13
2023-01-26T14:50:32.671Z,6.13
2023-01-26T14:53:41.046Z,7.10
2023-01-26T14:56:50.639Z,6.40
2023-01-26T15:00:03.336Z,6.13
2023-01-26T15:03:24.780Z,5.50
2023-01-26T15:06:34.094Z,6.43
2023-01-26T15:09:42.264Z,6.80
2023-01-26T15:13:01.240Z,7.20
2023-01-26T15:16:18.631Z,7.17
2023-01-26T15:19:31.848Z,7.53
2023-01-26T15:22:40.446Z,6.97
2023-01-26T15:25:49.466Z,9.07
2023-01-26T15:29:01.755Z,8.33
2023-01-26T15:32:30.423Z,6.90
2023-01-26T15:35:38.550Z,6.47
2023-01-26T15:38:47.592Z,6.90
2023-01-26T15:42:16.105Z,6.50
2023-01-26T15:45:30.061Z,7.30
2023-01-26T15:48:38.197Z,7.33
2023-01-26T15:51:46.780Z,7.10
2023-01-26T15:54:55.060Z,7.13
2023-01-26T15:58:03.196Z,6.90
2023-01-26T16:01:21.928Z,6.93
2023-01-26T16:04:30.080Z,24.00
2023-01-26T16:07:38.234Z,9.17
2023-01-26T16:10:47.842Z,7.87
2023-01-26T16:14:03.300Z,7.13
2023-01-26T16:17:18.200Z,8.03
2023-01-26T16:20:26.302Z,8.00
2023-01-26T16:23:34.715Z,8.60
2023-01-26T16:26:42.878Z,8.63
2023-01-26T16:29:51.006Z,8.07
2023-01-26T16:33:00.496Z,7.53
2023-01-26T16:36:12.300Z,7.10
2023-01-26T16:39:21.484Z,6.37
2023-01-26T16:42:29.617Z,7.17
2023-01-26T16:45:37.782Z,8.17
2023-01-26T16:48:47.416Z,7.37
2023-01-26T16:51:55.565Z,9.87
2023-01-26T16:55:04.159Z,7.97
2023-01-26T16:58:12.560Z,6.73
2023-01-26T17:01:23.957Z,7.70
2023-01-26T17:04:33.472Z,7.43
2023-01-26T17:07:44.777Z,9.07
2023-01-26T17:11:01.961Z,8.27
2023-01-26T17:14:13.088Z,10.23
2023-01-26T17:17:21.531Z,6.00
2023-01-26T17:20:31.637Z,5.67
2023-01-26T17:23:44.266Z,7.33
2023-01-26T17:26:53.679Z,6.70
2023-01-26T17:30:02.489Z,8.20
2023-01-26T17:33:10.772Z,6.67
2023-01-26T17:36:22.542Z,6.97
2023-01-26T17:39:30.945Z,10.40
2023-01-26T17:42:39.070Z,7.07
2023-01-26T17:45:47.261Z,5.80
2023-01-26T17:48:56.303Z,5.03
2023-01-26T17:52:08.192Z,5.20
2023-01-26T17:55:16.426Z,5.57
2023-01-26T17:58:24.600Z,6.97
2023-01-26T18:01:32.693Z,5.20
2023-01-26T18:04:41.033Z,5.60
2023-01-26T18:07:50.903Z,10.30
2023-01-26T18:11:00.645Z,10.80
2023-01-26T18:14:08.994Z,6.03
2023-01-26T18:17:18.501Z,5.33
2023-01-26T18:20:27.807Z,5.43
2023-01-26T18:23:37.802Z,6.80
2023-01-26T18:26:47.659Z,5.03
2023-01-26T18:29:56.242Z,5.03
2023-01-26T18:33:04.657Z,5.27
2023-01-26T18:36:16.520Z,6.43
2023-01-26T18:39:27.653Z,5.30
2023-01-26T18:42:36.276Z,7.33
2023-01-26T18:45:45.193Z,9.83
2023-01-26T18:48:54.814Z,9.80
2023-01-26T18:52:03.351Z,6.07
2023-01-26T18:55:13.848Z,5.50
2023-01-26T18:58:25.234Z,5.63
2023-01-26T19:01:33.681Z,4.40
2023-01-26T19:04:43.044Z,5.30
2023-01-26T19:07:51.520Z,4.80
2023-01-26T19:11:08.059Z,5.00
2023-01-26T19:14:16.594Z,5.30
2023-01-26T19:17:24.788Z,6.10
2023-01-26T19:20:33.334Z,5.90
2023-01-26T19:23:42.690Z,5.23
2023-01-26T19:26:55.265Z,6.33
2023-01-26T19:30:03.363Z,6.30
2023-01-26T19:33:28.942Z,5.67
2023-01-26T19:36:38.113Z,5.87
2023-01-26T19:39:46.567Z,5.83
2023-01-26T19:42:56.162Z,4.77
2023-01-26T19:46:05.651Z,5.43
2023-01-26T19:49:15.101Z,6.43
2023-01-26T19:52:23.529Z,7.90
2023-01-26T19:55:34.725Z,6.47
2023-01-26T19:58:45.121Z,5.30
2023-01-26T20:01:53.482Z,8.10
2023-01-26T20:05:01.663Z,6.50
2023-01-26T20:08:10.084Z,6.93
2023-01-26T20:11:19.910Z,6.27
2023-01-26T20:14:30.504Z,6.43
2023-01-26T20:17:38.937Z,5.60
2023-01-26T20:20:51.507Z,6.93
2023-01-26T20:24:05.728Z,5.17
2023-01-26T20:27:14.555Z,5.90
2023-01-26T20:30:24.932Z,6.23
2023-01-26T20:33:33.482Z,6.80
2023-01-26T20:36:43.204Z,6.30
2023-01-26T20:39:51.679Z,5.53
2023-01-26T20:42:59.907Z,7.30
2023-01-26T20:46:12.207Z,5.60
2023-01-26T20:49:21.555Z,7.17
2023-01-26T20:52:30.490Z,7.00
2023-01-26T20:55:38.733Z,6.03
2023-01-26T20:58:47.277Z,8.80
2023-01-26T21:01:57.049Z,8.10
2023-01-26T21:05:07.157Z,8.27
2023-01-26T21:08:15.585Z,7.47
2023-01-26T21:11:26.355Z,7.00
2023-01-26T21:14:35.142Z,7.67
2023-01-26T21:17:44.761Z,7.20
2023-01-26T21:20:57.397Z,6.07
2023-01-26T21:24:06.607Z,6.27
2023-01-26T21:27:15.375Z,6.27
2023-01-26T21:30:24.950Z,5.60
2023-01-26T21:33:38.603Z,6.50
2023-01-26T21:36:48.097Z,7.23
2023-01-26T21:39:56.535Z,6.23
2023-01-26T21:43:04.871Z,7.30
2023-01-26T21:46:13.398Z,6.57
2023-01-26T21:49:26.519Z,5.77
2023-01-26T21:52:52.555Z,5.47
2023-01-26T21:56:00.970Z,6.03
2023-01-26T21:59:14.625Z,6.53
2023-01-26T22:02:23.770Z,5.97
2023-01-26T22:05:34.781Z,6.77
2023-01-26T22:08:43.007Z,6.20
2023-01-26T22:11:52.663Z,6.07
2023-01-26T22:15:01.358Z,6.23
2023-01-26T22:18:09.686Z,6.60
2023-01-26T22:21:20.772Z,6.30
2023-01-26T22:24:29.417Z,7.47
2023-01-26T22:27:41.163Z,8.40
2023-01-26T22:30:49.715Z,7.20
2023-01-26T22:34:00.462Z,9.20
2023-01-26T22:37:10.017Z,6.63
2023-01-26T22:40:19.007Z,9.57
2023-01-26T22:43:28.572Z,7.53
2023-01-26T22:46:37.518Z,8.40
2023-01-26T22:49:46.114Z,8.03
2023-01-26T22:52:57.317Z,7.97
2023-01-26T22:56:07.539Z,9.23
2023-01-26T22:59:16.162Z,8.30
2023-01-26T23:02:24.622Z,7.03
2023-01-26T23:05:35.970Z,6.57
2023-01-26T23:08:45.705Z,7.23
2023-01-26T23:11:53.825Z,7.90
2023-01-26T23:15:02.278Z,7.60
2023-01-26T23:18:10.657Z,6.90
2023-01-26T23:21:19.317Z,7.60
2023-01-26T23:24:29.295Z,8.07
2023-01-26T23:27:37.546Z,6.40
2023-01-26T23:30:45.707Z,7.43
2023-01-26T23:33:54.135Z,6.63
2023-01-26T23:37:02.467Z,6.97
2023-01-26T23:40:15.204Z,7.23
2023-01-26T23:43:25.017Z,7.20
2023-01-26T23:46:33.475Z,8.00
2023-01-26T23:49:41.834Z,6.77
2023-01-26T23:52:50.395Z,7.67
2023-01-26T23:56:04.611Z,8.07
2023-01-26T23:59:12.937Z,6.73
